sensor_id;sensor_type;location;lat;lon;timestamp;P1;durP1;ratioP1;P2;durP2;ratioP2
69030;SDS011;56083;48.774;8.942;2023-04-06T07:13:40;22.17;;;9.70;;
69030;SDS011;56083;48.774;8.942;2023-04-06T07:16:07;21.10;;;9.95;;
69030;SDS011;56083;48.774;8.942;2023-04-06T07:18:32;22.08;;;9.35;;
69030;SDS011;56083;48.774;8.942;2023-04-06T07:20:58;23.52;;;9.85;;
69030;SDS011;56083;48.774;8.942;2023-04-06T07:23:24;20.63;;;9.60;;
69030;SDS011;56083;48.774;8.942;2023-04-06T07:25:52;21.58;;;9.40;;
69030;SDS011;56083;48.774;8.942;2023-04-06T07:28:22;21.08;;;9.45;;
69030;SDS011;56083;48.774;8.942;2023-04-06T07:30:48;21.92;;;9.27;;
69030;SDS011;56083;48.774;8.942;2023-04-06T07:33:14;24.40;;;9.90;;
69030;SDS011;56083;48.774;8.942;2023-04-06T07:35:39;23.02;;;8.68;;
69030;SDS011;56083;48.774;8.942;2023-04-06T07:38:05;18.55;;;9.88;;
69030;SDS011;56083;48.774;8.942;2023-04-06T07:40:31;21.17;;;9.23;;
69030;SDS011;56083;48.774;8.942;2023-04-06T07:42:58;17.27;;;9.40;;
69030;SDS011;56083;48.774;8.942;2023-04-06T07:45:24;16.73;;;8.95;;
69030;SDS011;56083;48.774;8.942;2023-04-06T07:47:50;21.35;;;9.18;;
69030;SDS011;56083;48.774;8.942;2023-04-06T07:50:16;23.08;;;9.80;;
69030;SDS011;56083;48.774;8.942;2023-04-06T07:52:42;23.15;;;9.23;;
69030;SDS011;56083;48.774;8.942;2023-04-06T07:55:07;18.00;;;9.35;;
69030;SDS011;56083;48.774;8.942;2023-04-06T07:57:34;18.88;;;9.20;;
69030;SDS011;56083;48.774;8.942;2023-04-06T08:00:03;17.10;;;8.32;;
69030;SDS011;56083;48.774;8.942;2023-04-06T08:02:31;22.67;;;9.15;;
69030;SDS011;56083;48.774;8.942;2023-04-06T08:04:57;21.55;;;8.65;;
69030;SDS011;56083;48.774;8.942;2023-04-06T08:07:22;17.98;;;8.63;;
69030;SDS011;56083;48.774;8.942;2023-04-06T08:09:48;19.20;;;8.98;;
69030;SDS011;56083;48.774;8.942;2023-04-06T08:12:14;16.98;;;8.25;;
69030;SDS011;56083;48.774;8.942;2023-04-06T08:14:41;18.50;;;9.13;;
69030;SDS011;56083;48.774;8.942;2023-04-06T08:17:07;19.33;;;9.82;;
69030;SDS011;56083;48.774;8.942;2023-04-06T08:19:32;21.27;;;8.93;;
69030;SDS011;56083;48.774;8.942;2023-04-06T08:21:58;15.05;;;8.75;;
69030;SDS011;56083;48.774;8.942;2023-04-06T08:24:24;13.40;;;8.23;;
69030;SDS011;56083;48.774;8.942;2023-04-06T08:26:49;12.98;;;8.05;;
69030;SDS011;56083;48.774;8.942;2023-04-06T08:29:16;13.57;;;7.80;;
69030;SDS011;56083;48.774;8.942;2023-04-06T08:31:42;13.25;;;7.97;;
69030;SDS011;56083;48.774;8.942;2023-04-06T08:34:08;10.07;;;7.25;;
69030;SDS011;56083;48.774;8.942;2023-04-06T08:36:34;10.38;;;7.25;;
69030;SDS011;56083;48.774;8.942;2023-04-06T08:39:00;13.55;;;6.97;;
69030;SDS011;56083;48.774;8.942;2023-04-06T08:41:26;17.63;;;7.40;;
69030;SDS011;56083;48.774;8.942;2023-04-06T08:43:59;7.45;;;5.30;;
69030;SDS011;56083;48.774;8.942;2023-04-06T08:46:26;10.93;;;5.22;;
69030;SDS011;56083;48.774;8.942;2023-04-06T08:49:00;9.20;;;5.60;;
69030;SDS011;56083;48.774;8.942;2023-04-06T08:51:27;8.38;;;5.30;;
69030;SDS011;56083;48.774;8.942;2023-04-06T08:53:56;9.30;;;6.07;;
69030;SDS011;56083;48.774;8.942;2023-04-06T08:56:22;8.95;;;5.78;;
69030;SDS011;56083;48.774;8.942;2023-04-06T08:58:50;11.20;;;5.72;;
69030;SDS011;56083;48.774;8.942;2023-04-06T09:01:17;9.70;;;6.45;;
69030;SDS011;56083;48.774;8.942;2023-04-06T09:03:45;12.13;;;7.05;;
69030;SDS011;56083;48.774;8.942;2023-04-06T09:06:13;10.90;;;7.68;;
69030;SDS011;56083;48.774;8.942;2023-04-06T09:08:39;12.02;;;7.50;;
69030;SDS011;56083;48.774;8.942;2023-04-06T09:11:06;9.25;;;6.93;;
69030;SDS011;56083;48.774;8.942;2023-04-06T09:13:43;7.20;;;5.80;;
69030;SDS011;56083;48.774;8.942;2023-04-06T09:16:13;9.77;;;6.57;;
69030;SDS011;56083;48.774;8.942;2023-04-06T09:18:39;10.32;;;6.38;;
69030;SDS011;56083;48.774;8.942;2023-04-06T09:21:06;8.60;;;5.38;;
69030;SDS011;56083;48.774;8.942;2023-04-06T09:23:32;12.38;;;5.68;;
69030;SDS011;56083;48.774;8.942;2023-04-06T09:28:44;12.80;;;7.70;;
69030;SDS011;56083;48.774;8.942;2023-04-06T09:31:15;9.18;;;6.93;;
69030;SDS011;56083;48.774;8.942;2023-04-06T09:33:44;11.80;;;7.53;;
69030;SDS011;56083;48.774;8.942;2023-04-06T09:36:10;11.00;;;6.40;;
69030;SDS011;56083;48.774;8.942;2023-04-06T09:38:50;11.55;;;6.95;;
69030;SDS011;56083;48.774;8.942;2023-04-06T09:41:24;13.43;;;6.82;;
69030;SDS011;56083;48.774;8.942;2023-04-06T09:44:12;13.77;;;8.35;;
69030;SDS011;56083;48.774;8.942;2023-04-06T09:49:04;10.90;;;7.45;;
69030;SDS011;56083;48.774;8.942;2023-04-06T09:51:31;13.35;;;7.68;;
69030;SDS011;56083;48.774;8.942;2023-04-06T09:54:03;11.07;;;7.32;;
69030;SDS011;56083;48.774;8.942;2023-04-06T10:01:58;12.10;;;7.57;;
69030;SDS011;56083;48.774;8.942;2023-04-06T10:04:29;10.75;;;7.40;;
69030;SDS011;56083;48.774;8.942;2023-04-06T10:07:14;12.25;;;7.38;;
69030;SDS011;56083;48.774;8.942;2023-04-06T10:09:42;10.93;;;7.28;;
69030;SDS011;56083;48.774;8.942;2023-04-06T10:12:13;12.27;;;7.05;;
69030;SDS011;56083;48.774;8.942;2023-04-06T10:14:40;8.98;;;6.45;;
69030;SDS011;56083;48.774;8.942;2023-04-06T10:17:07;10.55;;;7.43;;
69030;SDS011;56083;48.774;8.942;2023-04-06T10:19:55;13.75;;;6.90;;
69030;SDS011;56083;48.774;8.942;2023-04-06T10:22:22;15.65;;;6.80;;
69030;SDS011;56083;48.774;8.942;2023-04-06T10:24:53;10.25;;;7.10;;
69030;SDS011;56083;48.774;8.942;2023-04-06T10:27:27;13.45;;;6.95;;
69030;SDS011;56083;48.774;8.942;2023-04-06T10:29:54;8.98;;;6.40;;
69030;SDS011;56083;48.774;8.942;2023-04-06T10:32:33;12.93;;;6.25;;
69030;SDS011;56083;48.774;8.942;2023-04-06T10:35:19;12.60;;;5.88;;
69030;SDS011;56083;48.774;8.942;2023-04-06T10:37:49;8.68;;;5.97;;
69030;SDS011;56083;48.774;8.942;2023-04-06T10:40:20;12.45;;;5.88;;
69030;SDS011;56083;48.774;8.942;2023-04-06T10:42:48;7.90;;;6.07;;
69030;SDS011;56083;48.774;8.942;2023-04-06T10:45:21;8.40;;;5.60;;
69030;SDS011;56083;48.774;8.942;2023-04-06T10:47:49;8.18;;;5.55;;
69030;SDS011;56083;48.774;8.942;2023-04-06T10:50:19;8.23;;;5.93;;
69030;SDS011;56083;48.774;8.942;2023-04-06T10:52:46;9.32;;;6.00;;
69030;SDS011;56083;48.774;8.942;2023-04-06T10:55:22;6.50;;;4.72;;
69030;SDS011;56083;48.774;8.942;2023-04-06T10:57:49;6.85;;;5.30;;
69030;SDS011;56083;48.774;8.942;2023-04-06T11:00:14;7.95;;;5.65;;
69030;SDS011;56083;48.774;8.942;2023-04-06T11:02:41;8.82;;;5.50;;
69030;SDS011;56083;48.774;8.942;2023-04-06T11:05:06;8.82;;;5.30;;
69030;SDS011;56083;48.774;8.942;2023-04-06T11:07:36;7.57;;;5.50;;
69030;SDS011;56083;48.774;8.942;2023-04-06T11:10:02;8.43;;;4.97;;
69030;SDS011;56083;48.774;8.942;2023-04-06T11:12:28;7.93;;;5.53;;
69030;SDS011;56083;48.774;8.942;2023-04-06T11:14:56;10.82;;;6.43;;
69030;SDS011;56083;48.774;8.942;2023-04-06T11:19:58;10.65;;;6.15;;
69030;SDS011;56083;48.774;8.942;2023-04-06T11:22:25;8.50;;;5.90;;
69030;SDS011;56083;48.774;8.942;2023-04-06T11:24:51;10.88;;;5.97;;
69030;SDS011;56083;48.774;8.942;2023-04-06T11:27:18;8.63;;;6.20;;
69030;SDS011;56083;48.774;8.942;2023-04-06T11:29:44;7.05;;;5.90;;
69030;SDS011;56083;48.774;8.942;2023-04-06T11:32:19;9.70;;;5.90;;
69030;SDS011;56083;48.774;8.942;2023-04-06T11:34:46;10.80;;;6.20;;
69030;SDS011;56083;48.774;8.942;2023-04-06T11:37:13;6.60;;;5.00;;
69030;SDS011;56083;48.774;8.942;2023-04-06T11:39:40;8.55;;;5.25;;
69030;SDS011;56083;48.774;8.942;2023-04-06T11:42:26;10.85;;;5.80;;
69030;SDS011;56083;48.774;8.942;2023-04-06T11:44:55;11.73;;;5.63;;
69030;SDS011;56083;48.774;8.942;2023-04-06T11:47:28;11.35;;;5.82;;
69030;SDS011;56083;48.774;8.942;2023-04-06T11:49:55;9.52;;;5.45;;
69030;SDS011;56083;48.774;8.942;2023-04-06T11:52:30;9.63;;;5.63;;
69030;SDS011;56083;48.774;8.942;2023-04-06T11:54:56;8.60;;;5.13;;
69030;SDS011;56083;48.774;8.942;2023-04-06T11:57:22;10.20;;;6.28;;
69030;SDS011;56083;48.774;8.942;2023-04-06T11:59:50;6.82;;;5.32;;
69030;SDS011;56083;48.774;8.942;2023-04-06T12:02:16;9.07;;;5.80;;
69030;SDS011;56083;48.774;8.942;2023-04-06T12:04:43;6.85;;;5.28;;
69030;SDS011;56083;48.774;8.942;2023-04-06T12:07:08;9.73;;;6.35;;
69030;SDS011;56083;48.774;8.942;2023-04-06T12:09:34;15.85;;;10.95;;
69030;SDS011;56083;48.774;8.942;2023-04-06T12:12:01;12.57;;;6.20;;
69030;SDS011;56083;48.774;8.942;2023-04-06T12:14:27;18.40;;;11.52;;
69030;SDS011;56083;48.774;8.942;2023-04-06T12:16:52;14.75;;;10.32;;
69030;SDS011;56083;48.774;8.942;2023-04-06T12:19:18;10.68;;;7.05;;
69030;SDS011;56083;48.774;8.942;2023-04-06T12:21:44;14.32;;;5.10;;
69030;SDS011;56083;48.774;8.942;2023-04-06T12:24:10;10.10;;;5.20;;
69030;SDS011;56083;48.774;8.942;2023-04-06T12:26:35;8.32;;;4.90;;
69030;SDS011;56083;48.774;8.942;2023-04-06T12:29:02;8.38;;;4.85;;
69030;SDS011;56083;48.774;8.942;2023-04-06T12:31:37;10.95;;;6.25;;
69030;SDS011;56083;48.774;8.942;2023-04-06T12:34:03;6.75;;;4.43;;
69030;SDS011;56083;48.774;8.942;2023-04-06T12:36:29;8.70;;;5.05;;
69030;SDS011;56083;48.774;8.942;2023-04-06T12:38:56;9.18;;;6.57;;
69030;SDS011;56083;48.774;8.942;2023-04-06T12:41:22;8.55;;;4.72;;
69030;SDS011;56083;48.774;8.942;2023-04-06T12:43:48;7.05;;;4.63;;
69030;SDS011;56083;48.774;8.942;2023-04-06T12:46:15;13.73;;;6.28;;
69030;SDS011;56083;48.774;8.942;2023-04-06T12:48:41;9.75;;;5.20;;
69030;SDS011;56083;48.774;8.942;2023-04-06T12:51:06;13.70;;;4.03;;
69030;SDS011;56083;48.774;8.942;2023-04-06T12:53:33;5.93;;;4.38;;
69030;SDS011;56083;48.774;8.942;2023-04-06T12:55:59;9.30;;;3.95;;
69030;SDS011;56083;48.774;8.942;2023-04-06T12:58:25;7.30;;;4.10;;
69030;SDS011;56083;48.774;8.942;2023-04-06T13:00:52;8.65;;;4.38;;
69030;SDS011;56083;48.774;8.942;2023-04-06T13:03:18;7.80;;;4.57;;
69030;SDS011;56083;48.774;8.942;2023-04-06T13:05:45;7.25;;;4.47;;
69030;SDS011;56083;48.774;8.942;2023-04-06T13:08:12;5.93;;;4.50;;
69030;SDS011;56083;48.774;8.942;2023-04-06T13:10:38;7.57;;;4.80;;
69030;SDS011;56083;48.774;8.942;2023-04-06T13:13:12;10.75;;;5.10;;
69030;SDS011;56083;48.774;8.942;2023-04-06T13:15:41;9.50;;;5.00;;
69030;SDS011;56083;48.774;8.942;2023-04-06T13:18:08;10.02;;;4.63;;
69030;SDS011;56083;48.774;8.942;2023-04-06T13:20:34;9.57;;;4.43;;
69030;SDS011;56083;48.774;8.942;2023-04-06T13:23:00;10.30;;;5.13;;
69030;SDS011;56083;48.774;8.942;2023-04-06T13:25:26;9.23;;;4.75;;
69030;SDS011;56083;48.774;8.942;2023-04-06T13:27:53;7.53;;;4.47;;
69030;SDS011;56083;48.774;8.942;2023-04-06T13:30:19;11.43;;;5.00;;
69030;SDS011;56083;48.774;8.942;2023-04-06T13:32:45;9.55;;;4.57;;
69030;SDS011;56083;48.774;8.942;2023-04-06T13:35:11;9.30;;;5.28;;
69030;SDS011;56083;48.774;8.942;2023-04-06T13:37:36;9.85;;;5.28;;
69030;SDS011;56083;48.774;8.942;2023-04-06T13:40:03;11.07;;;5.35;;
69030;SDS011;56083;48.774;8.942;2023-04-06T13:42:30;10.45;;;5.75;;
69030;SDS011;56083;48.774;8.942;2023-04-06T13:44:56;8.07;;;4.30;;
69030;SDS011;56083;48.774;8.942;2023-04-06T13:47:22;9.98;;;4.90;;
69030;SDS011;56083;48.774;8.942;2023-04-06T13:49:49;7.93;;;4.82;;
69030;SDS011;56083;48.774;8.942;2023-04-06T13:52:16;11.00;;;4.85;;
69030;SDS011;56083;48.774;8.942;2023-04-06T13:54:42;12.85;;;4.80;;
69030;SDS011;56083;48.774;8.942;2023-04-06T13:57:07;7.53;;;4.03;;
69030;SDS011;56083;48.774;8.942;2023-04-06T13:59:36;6.18;;;4.38;;
69030;SDS011;56083;48.774;8.942;2023-04-06T14:02:03;7.05;;;4.22;;
69030;SDS011;56083;48.774;8.942;2023-04-06T14:04:29;8.90;;;4.18;;
69030;SDS011;56083;48.774;8.942;2023-04-06T14:06:56;7.43;;;3.90;;
69030;SDS011;56083;48.774;8.942;2023-04-06T14:09:22;8.55;;;4.00;;
69030;SDS011;56083;48.774;8.942;2023-04-06T14:11:48;6.43;;;4.15;;
69030;SDS011;56083;48.774;8.942;2023-04-06T14:14:14;5.75;;;4.05;;
69030;SDS011;56083;48.774;8.942;2023-04-06T14:16:40;8.27;;;4.40;;
69030;SDS011;56083;48.774;8.942;2023-04-06T14:19:08;5.63;;;3.88;;
69030;SDS011;56083;48.774;8.942;2023-04-06T14:21:35;7.97;;;5.00;;
69030;SDS011;56083;48.774;8.942;2023-04-06T14:24:01;7.82;;;4.63;;
69030;SDS011;56083;48.774;8.942;2023-04-06T14:26:27;14.48;;;4.68;;
69030;SDS011;56083;48.774;8.942;2023-04-06T14:28:52;8.63;;;4.47;;
69030;SDS011;56083;48.774;8.942;2023-04-06T14:31:18;7.15;;;4.57;;
69030;SDS011;56083;48.774;8.942;2023-04-06T14:33:44;8.30;;;4.78;;
69030;SDS011;56083;48.774;8.942;2023-04-06T14:36:09;9.23;;;4.55;;
69030;SDS011;56083;48.774;8.942;2023-04-06T14:38:36;8.60;;;4.63;;
69030;SDS011;56083;48.774;8.942;2023-04-06T14:41:01;10.02;;;4.85;;
69030;SDS011;56083;48.774;8.942;2023-04-06T14:43:27;8.65;;;4.80;;
69030;SDS011;56083;48.774;8.942;2023-04-06T14:45:53;14.30;;;4.88;;
69030;SDS011;56083;48.774;8.942;2023-04-06T14:48:18;8.50;;;4.40;;
69030;SDS011;56083;48.774;8.942;2023-04-06T14:50:54;8.95;;;4.40;;
69030;SDS011;56083;48.774;8.942;2023-04-06T14:53:21;12.93;;;4.53;;
69030;SDS011;56083;48.774;8.942;2023-04-06T14:55:47;8.25;;;4.88;;
69030;SDS011;56083;48.774;8.942;2023-04-06T14:58:16;8.70;;;4.95;;
69030;SDS011;56083;48.774;8.942;2023-04-06T15:00:42;10.70;;;4.72;;
69030;SDS011;56083;48.774;8.942;2023-04-06T15:03:08;8.82;;;5.15;;
69030;SDS011;56083;48.774;8.942;2023-04-06T15:05:34;9.60;;;4.10;;
69030;SDS011;56083;48.774;8.942;2023-04-06T15:08:00;11.27;;;6.47;;
69030;SDS011;56083;48.774;8.942;2023-04-06T15:10:27;13.60;;;6.90;;
69030;SDS011;56083;48.774;8.942;2023-04-06T15:12:55;9.23;;;6.25;;
69030;SDS011;56083;48.774;8.942;2023-04-06T15:15:20;10.82;;;5.75;;
69030;SDS011;56083;48.774;8.942;2023-04-06T15:17:46;11.30;;;5.97;;
69030;SDS011;56083;48.774;8.942;2023-04-06T15:22:37;11.70;;;6.28;;
69030;SDS011;56083;48.774;8.942;2023-04-06T15:25:02;11.43;;;5.88;;
69030;SDS011;56083;48.774;8.942;2023-04-06T15:27:28;11.30;;;6.63;;
69030;SDS011;56083;48.774;8.942;2023-04-06T15:29:55;11.75;;;6.05;;
69030;SDS011;56083;48.774;8.942;2023-04-06T15:32:20;10.43;;;6.20;;
69030;SDS011;56083;48.774;8.942;2023-04-06T15:34:46;18.48;;;7.53;;
69030;SDS011;56083;48.774;8.942;2023-04-06T15:37:12;13.10;;;7.15;;
69030;SDS011;56083;48.774;8.942;2023-04-06T15:39:37;10.95;;;6.93;;
69030;SDS011;56083;48.774;8.942;2023-04-06T15:42:03;12.18;;;6.90;;
69030;SDS011;56083;48.774;8.942;2023-04-06T15:44:29;13.23;;;7.35;;
69030;SDS011;56083;48.774;8.942;2023-04-06T15:46:55;17.92;;;7.65;;
69030;SDS011;56083;48.774;8.942;2023-04-06T15:49:20;15.23;;;7.40;;
69030;SDS011;56083;48.774;8.942;2023-04-06T15:51:49;10.95;;;6.82;;
69030;SDS011;56083;48.774;8.942;2023-04-06T15:54:15;11.75;;;7.38;;
69030;SDS011;56083;48.774;8.942;2023-04-06T15:56:42;15.18;;;7.57;;
69030;SDS011;56083;48.774;8.942;2023-04-06T15:59:08;13.98;;;6.65;;
69030;SDS011;56083;48.774;8.942;2023-04-06T16:01:33;11.98;;;6.68;;
69030;SDS011;56083;48.774;8.942;2023-04-06T16:03:59;11.07;;;6.55;;
69030;SDS011;56083;48.774;8.942;2023-04-06T16:06:25;11.82;;;6.35;;
69030;SDS011;56083;48.774;8.942;2023-04-06T16:08:51;10.27;;;5.93;;
69030;SDS011;56083;48.774;8.942;2023-04-06T16:11:17;11.50;;;6.15;;
69030;SDS011;56083;48.774;8.942;2023-04-06T16:13:43;11.02;;;6.10;;
69030;SDS011;56083;48.774;8.942;2023-04-06T16:16:09;13.65;;;6.88;;
69030;SDS011;56083;48.774;8.942;2023-04-06T16:18:35;11.82;;;6.40;;
69030;SDS011;56083;48.774;8.942;2023-04-06T16:21:00;12.82;;;6.70;;
69030;SDS011;56083;48.774;8.942;2023-04-06T16:23:26;12.85;;;6.75;;
69030;SDS011;56083;48.774;8.942;2023-04-06T16:25:52;14.52;;;6.80;;
69030;SDS011;56083;48.774;8.942;2023-04-06T16:28:18;13.43;;;6.63;;
69030;SDS011;56083;48.774;8.942;2023-04-06T16:30:44;12.13;;;6.70;;
69030;SDS011;56083;48.774;8.942;2023-04-06T16:33:10;10.02;;;6.43;;
69030;SDS011;56083;48.774;8.942;2023-04-06T16:35:41;20.10;;;6.38;;
69030;SDS011;56083;48.774;8.942;2023-04-06T16:38:11;13.23;;;5.88;;
69030;SDS011;56083;48.774;8.942;2023-04-06T16:40:37;10.75;;;5.90;;
69030;SDS011;56083;48.774;8.942;2023-04-06T16:43:03;11.13;;;6.13;;
69030;SDS011;56083;48.774;8.942;2023-04-06T16:45:29;13.85;;;5.70;;
69030;SDS011;56083;48.774;8.942;2023-04-06T16:47:56;14.00;;;5.88;;
69030;SDS011;56083;48.774;8.942;2023-04-06T16:50:21;10.70;;;5.93;;
69030;SDS011;56083;48.774;8.942;2023-04-06T16:52:47;11.43;;;5.65;;
69030;SDS011;56083;48.774;8.942;2023-04-06T16:55:13;10.30;;;5.43;;
69030;SDS011;56083;48.774;8.942;2023-04-06T16:57:38;10.60;;;4.80;;
69030;SDS011;56083;48.774;8.942;2023-04-06T17:00:05;11.50;;;5.28;;
69030;SDS011;56083;48.774;8.942;2023-04-06T17:02:32;13.23;;;4.70;;
69030;SDS011;56083;48.774;8.942;2023-04-06T17:05:00;10.65;;;5.57;;
69030;SDS011;56083;48.774;8.942;2023-04-06T17:07:26;11.02;;;5.35;;
69030;SDS011;56083;48.774;8.942;2023-04-06T17:09:57;9.85;;;5.30;;
69030;SDS011;56083;48.774;8.942;2023-04-06T17:12:24;9.88;;;5.10;;
69030;SDS011;56083;48.774;8.942;2023-04-06T17:14:50;14.18;;;5.78;;
69030;SDS011;56083;48.774;8.942;2023-04-06T17:17:15;10.88;;;5.72;;
69030;SDS011;56083;48.774;8.942;2023-04-06T17:19:41;17.58;;;6.53;;
69030;SDS011;56083;48.774;8.942;2023-04-06T17:22:07;14.30;;;6.63;;
69030;SDS011;56083;48.774;8.942;2023-04-06T17:24:33;12.13;;;6.60;;
69030;SDS011;56083;48.774;8.942;2023-04-06T17:26:58;12.75;;;5.82;;
69030;SDS011;56083;48.774;8.942;2023-04-06T17:29:24;9.57;;;5.82;;
69030;SDS011;56083;48.774;8.942;2023-04-06T17:31:50;11.75;;;6.57;;
69030;SDS011;56083;48.774;8.942;2023-04-06T17:34:15;12.73;;;6.15;;
69030;SDS011;56083;48.774;8.942;2023-04-06T17:36:41;13.13;;;5.85;;
69030;SDS011;56083;48.774;8.942;2023-04-06T17:39:07;10.65;;;5.90;;
69030;SDS011;56083;48.774;8.942;2023-04-06T17:41:32;15.63;;;6.10;;
69030;SDS011;56083;48.774;8.942;2023-04-06T17:43:58;10.23;;;5.75;;
69030;SDS011;56083;48.774;8.942;2023-04-06T17:46:24;11.43;;;6.10;;
69030;SDS011;56083;48.774;8.942;2023-04-06T17:48:51;11.93;;;5.68;;
69030;SDS011;56083;48.774;8.942;2023-04-06T17:51:17;11.70;;;5.57;;
69030;SDS011;56083;48.774;8.942;2023-04-06T17:53:44;11.35;;;5.75;;
69030;SDS011;56083;48.774;8.942;2023-04-06T17:56:11;10.43;;;5.80;;
69030;SDS011;56083;48.774;8.942;2023-04-06T17:58:38;14.52;;;6.93;;
69030;SDS011;56083;48.774;8.942;2023-04-06T18:01:07;21.65;;;6.25;;
69030;SDS011;56083;48.774;8.942;2023-04-06T18:03:36;14.88;;;5.35;;
69030;SDS011;56083;48.774;8.942;2023-04-06T18:06:09;12.50;;;5.55;;
69030;SDS011;56083;48.774;8.942;2023-04-06T18:08:39;11.52;;;5.82;;
69030;SDS011;56083;48.774;8.942;2023-04-06T18:11:05;10.20;;;5.15;;
69030;SDS011;56083;48.774;8.942;2023-04-06T18:13:31;14.27;;;5.75;;
69030;SDS011;56083;48.774;8.942;2023-04-06T18:16:00;10.55;;;5.43;;
69030;SDS011;56083;48.774;8.942;2023-04-06T18:18:26;13.13;;;5.88;;
69030;SDS011;56083;48.774;8.942;2023-04-06T18:20:53;10.43;;;6.00;;
69030;SDS011;56083;48.774;8.942;2023-04-06T18:23:20;14.82;;;7.07;;
69030;SDS011;56083;48.774;8.942;2023-04-06T18:25:47;12.73;;;6.80;;
69030;SDS011;56083;48.774;8.942;2023-04-06T18:28:13;17.20;;;7.88;;
69030;SDS011;56083;48.774;8.942;2023-04-06T18:30:43;19.65;;;7.03;;
69030;SDS011;56083;48.774;8.942;2023-04-06T18:33:09;16.70;;;8.38;;
69030;SDS011;56083;48.774;8.942;2023-04-06T18:35:34;29.20;;;14.32;;
69030;SDS011;56083;48.774;8.942;2023-04-06T18:38:00;14.77;;;7.68;;
69030;SDS011;56083;48.774;8.942;2023-04-06T18:40:33;11.80;;;5.45;;
69030;SDS011;56083;48.774;8.942;2023-04-06T18:43:01;14.32;;;6.03;;
69030;SDS011;56083;48.774;8.942;2023-04-06T18:45:27;8.25;;;5.00;;
69030;SDS011;56083;48.774;8.942;2023-04-06T18:47:54;8.50;;;3.60;;
69030;SDS011;56083;48.774;8.942;2023-04-06T18:50:21;2.85;;;1.88;;
69030;SDS011;56083;48.774;8.942;2023-04-06T18:52:47;10.52;;;3.10;;
69030;SDS011;56083;48.774;8.942;2023-04-06T18:55:12;8.45;;;4.38;;
69030;SDS011;56083;48.774;8.942;2023-04-06T18:57:38;6.72;;;3.70;;
69030;SDS011;56083;48.774;8.942;2023-04-06T19:00:04;6.28;;;2.63;;
69030;SDS011;56083;48.774;8.942;2023-04-06T19:02:31;8.38;;;3.03;;
69030;SDS011;56083;48.774;8.942;2023-04-06T19:04:57;9.90;;;2.72;;
69030;SDS011;56083;48.774;8.942;2023-04-06T19:07:22;7.60;;;2.90;;
69030;SDS011;56083;48.774;8.942;2023-04-06T19:09:50;5.88;;;2.72;;
69030;SDS011;56083;48.774;8.942;2023-04-06T19:12:16;6.72;;;3.08;;
69030;SDS011;56083;48.774;8.942;2023-04-06T19:14:42;5.15;;;2.80;;
69030;SDS011;56083;48.774;8.942;2023-04-06T19:17:14;15.30;;;5.10;;
69030;SDS011;56083;48.774;8.942;2023-04-06T19:19:40;9.60;;;3.53;;
69030;SDS011;56083;48.774;8.942;2023-04-06T19:22:05;7.30;;;3.03;;
69030;SDS011;56083;48.774;8.942;2023-04-06T19:24:31;6.75;;;3.05;;
69030;SDS011;56083;48.774;8.942;2023-04-06T19:26:57;14.77;;;4.53;;
69030;SDS011;56083;48.774;8.942;2023-04-06T19:29:23;8.35;;;2.53;;
69030;SDS011;56083;48.774;8.942;2023-04-06T19:31:49;3.75;;;1.88;;
69030;SDS011;56083;48.774;8.942;2023-04-06T19:34:15;7.60;;;3.15;;
69030;SDS011;56083;48.774;8.942;2023-04-06T19:36:45;6.40;;;2.80;;
69030;SDS011;56083;48.774;8.942;2023-04-06T19:39:12;4.93;;;2.67;;
69030;SDS011;56083;48.774;8.942;2023-04-06T19:41:41;5.43;;;2.40;;
69030;SDS011;56083;48.774;8.942;2023-04-06T19:44:07;8.00;;;3.67;;
69030;SDS011;56083;48.774;8.942;2023-04-06T19:46:34;16.40;;;5.63;;
69030;SDS011;56083;48.774;8.942;2023-04-06T19:49:00;10.60;;;4.22;;
69030;SDS011;56083;48.774;8.942;2023-04-06T19:51:32;15.35;;;5.70;;
69030;SDS011;56083;48.774;8.942;2023-04-06T19:53:59;9.45;;;4.88;;
69030;SDS011;56083;48.774;8.942;2023-04-06T19:56:28;6.68;;;3.90;;
69030;SDS011;56083;48.774;8.942;2023-04-06T19:58:55;12.70;;;5.22;;
69030;SDS011;56083;48.774;8.942;2023-04-06T20:01:21;12.82;;;5.90;;
69030;SDS011;56083;48.774;8.942;2023-04-06T20:03:47;9.75;;;4.20;;
69030;SDS011;56083;48.774;8.942;2023-04-06T20:06:13;8.32;;;3.80;;
69030;SDS011;56083;48.774;8.942;2023-04-06T20:08:40;10.82;;;5.20;;
69030;SDS011;56083;48.774;8.942;2023-04-06T20:11:07;14.52;;;6.40;;
69030;SDS011;56083;48.774;8.942;2023-04-06T20:13:33;12.95;;;5.93;;
69030;SDS011;56083;48.774;8.942;2023-04-06T20:16:00;10.45;;;5.47;;
69030;SDS011;56083;48.774;8.942;2023-04-06T20:18:26;16.40;;;5.95;;
69030;SDS011;56083;48.774;8.942;2023-04-06T20:20:53;10.80;;;5.10;;
69030;SDS011;56083;48.774;8.942;2023-04-06T20:23:18;10.73;;;5.35;;
69030;SDS011;56083;48.774;8.942;2023-04-06T20:25:45;11.18;;;5.95;;
69030;SDS011;56083;48.774;8.942;2023-04-06T20:28:11;16.27;;;5.65;;
69030;SDS011;56083;48.774;8.942;2023-04-06T20:30:37;10.57;;;5.63;;
69030;SDS011;56083;48.774;8.942;2023-04-06T20:33:03;11.10;;;5.45;;
69030;SDS011;56083;48.774;8.942;2023-04-06T20:35:29;10.25;;;6.05;;
69030;SDS011;56083;48.774;8.942;2023-04-06T20:37:59;10.20;;;6.00;;
69030;SDS011;56083;48.774;8.942;2023-04-06T20:40:25;14.60;;;5.85;;
69030;SDS011;56083;48.774;8.942;2023-04-06T20:42:54;13.07;;;5.97;;
69030;SDS011;56083;48.774;8.942;2023-04-06T20:45:21;11.07;;;5.70;;
69030;SDS011;56083;48.774;8.942;2023-04-06T20:47:52;11.25;;;6.18;;
69030;SDS011;56083;48.774;8.942;2023-04-06T20:50:20;14.00;;;6.70;;
69030;SDS011;56083;48.774;8.942;2023-04-06T20:52:47;13.35;;;6.30;;
69030;SDS011;56083;48.774;8.942;2023-04-06T20:55:13;13.32;;;7.68;;
69030;SDS011;56083;48.774;8.942;2023-04-06T20:57:40;11.38;;;7.15;;
69030;SDS011;56083;48.774;8.942;2023-04-06T21:00:06;10.48;;;6.50;;
69030;SDS011;56083;48.774;8.942;2023-04-06T21:02:33;12.30;;;6.80;;
69030;SDS011;56083;48.774;8.942;2023-04-06T21:04:59;12.18;;;6.85;;
69030;SDS011;56083;48.774;8.942;2023-04-06T21:07:25;12.68;;;7.53;;
69030;SDS011;56083;48.774;8.942;2023-04-06T21:09:50;15.30;;;7.70;;
69030;SDS011;56083;48.774;8.942;2023-04-06T21:12:16;14.63;;;8.25;;
69030;SDS011;56083;48.774;8.942;2023-04-06T21:14:42;13.68;;;8.32;;
69030;SDS011;56083;48.774;8.942;2023-04-06T21:17:08;14.02;;;9.27;;
69030;SDS011;56083;48.774;8.942;2023-04-06T21:19:35;16.98;;;9.93;;
69030;SDS011;56083;48.774;8.942;2023-04-06T21:22:01;15.70;;;9.55;;
69030;SDS011;56083;48.774;8.942;2023-04-06T21:24:26;16.08;;;9.82;;
69030;SDS011;56083;48.774;8.942;2023-04-06T21:26:52;21.20;;;10.57;;
69030;SDS011;56083;48.774;8.942;2023-04-06T21:29:18;17.75;;;10.43;;
69030;SDS011;56083;48.774;8.942;2023-04-06T21:31:44;19.35;;;11.30;;
69030;SDS011;56083;48.774;8.942;2023-04-06T21:34:10;20.63;;;11.90;;
69030;SDS011;56083;48.774;8.942;2023-04-06T21:36:36;17.42;;;11.13;;
69030;SDS011;56083;48.774;8.942;2023-04-06T21:39:03;21.42;;;12.30;;
69030;SDS011;56083;48.774;8.942;2023-04-06T21:41:29;18.17;;;12.23;;
69030;SDS011;56083;48.774;8.942;2023-04-06T21:43:55;19.60;;;12.07;;
69030;SDS011;56083;48.774;8.942;2023-04-06T21:46:21;21.00;;;12.50;;
69030;SDS011;56083;48.774;8.942;2023-04-06T21:48:47;19.52;;;12.48;;
69030;SDS011;56083;48.774;8.942;2023-04-06T21:51:16;23.15;;;13.80;;
69030;SDS011;56083;48.774;8.942;2023-04-06T21:53:46;22.08;;;13.38;;
69030;SDS011;56083;48.774;8.942;2023-04-06T21:56:11;22.55;;;13.48;;
69030;SDS011;56083;48.774;8.942;2023-04-06T21:58:37;19.10;;;12.30;;
69030;SDS011;56083;48.774;8.942;2023-04-06T22:01:10;20.85;;;13.02;;
69030;SDS011;56083;48.774;8.942;2023-04-06T22:03:36;22.80;;;14.18;;
69030;SDS011;56083;48.774;8.942;2023-04-06T22:06:06;21.58;;;13.80;;